sensor_id;sensor_type;location;lat;lon;timestamp;pressure;altitude;pressure_sealevel;temperature;humidity
5138;BME280;53959;53.626;11.410;2023-07-24T00:00:18;99882.56;;;18.00;100.00
5138;BME280;53959;53.626;11.410;2023-07-24T00:02:44;99878.16;;;17.99;100.00
5138;BME280;53959;53.626;11.410;2023-07-24T00:05:09;99890.72;;;17.99;100.00
5138;BME280;53959;53.626;11.410;2023-07-24T00:07:35;99878.47;;;17.94;100.00
5138;BME280;53959;53.626;11.410;2023-07-24T00:10:01;99880.19;;;17.95;100.00
5138;BME280;53959;53.626;11.410;2023-07-24T00:12:26;99885.66;;;17.94;100.00
5138;BME280;53959;53.626;11.410;2023-07-24T00:14:52;99884.78;;;17.93;100.00
5138;BME280;53959;53.626;11.410;2023-07-24T00:17:17;99884.91;;;17.92;100.00
5138;BME280;53959;53.626;11.410;2023-07-24T00:19:42;99875.66;;;17.83;100.00
5138;BME280;53959;53.626;11.410;2023-07-24T00:22:08;99877.50;;;17.83;100.00
5138;BME280;53959;53.626;11.410;2023-07-24T00:24:33;99874.38;;;17.76;100.00
5138;BME280;53959;53.626;11.410;2023-07-24T00:26:59;99870.00;;;17.73;100.00
5138;BME280;53959;53.626;11.410;2023-07-24T00:29:24;99855.94;;;17.70;100.00
5138;BME280;53959;53.626;11.410;2023-07-24T00:31:49;99857.75;;;17.69;100.00
5138;BME280;53959;53.626;11.410;2023-07-24T00:34:15;99859.69;;;17.67;100.00
5138;BME280;53959;53.626;11.410;2023-07-24T00:36:40;99843.03;;;17.62;100.00
5138;BME280;53959;53.626;11.410;2023-07-24T00:39:06;99842.91;;;17.64;100.00
5138;BME280;53959;53.626;11.410;2023-07-24T00:41:31;99843.44;;;17.56;100.00
5138;BME280;53959;53.626;11.410;2023-07-24T00:43:56;99861.28;;;17.57;100.00
5138;BME280;53959;53.626;11.410;2023-07-24T00:46:22;99851.72;;;17.53;100.00
5138;BME280;53959;53.626;11.410;2023-07-24T00:48:48;99843.88;;;17.50;100.00
5138;BME280;53959;53.626;11.410;2023-07-24T00:51:13;99845.91;;;17.46;100.00
5138;BME280;53959;53.626;11.410;2023-07-24T00:53:39;99849.25;;;17.50;100.00
5138;BME280;53959;53.626;11.410;2023-07-24T00:56:06;99848.66;;;17.45;100.00
5138;BME280;53959;53.626;11.410;2023-07-24T00:58:33;99848.13;;;17.40;100.00
5138;BME280;53959;53.626;11.410;2023-07-24T01:00:59;99858.78;;;17.41;100.00
5138;BME280;53959;53.626;11.410;2023-07-24T01:03:35;99859.84;;;17.39;100.00
5138;BME280;53959;53.626;11.410;2023-07-24T01:06:02;99855.53;;;17.36;100.00
5138;BME280;53959;53.626;11.410;2023-07-24T01:08:28;99852.09;;;17.34;100.00
5138;BME280;53959;53.626;11.410;2023-07-24T01:11:05;99844.78;;;17.36;100.00
5138;BME280;53959;53.626;11.410;2023-07-24T01:13:36;99851.97;;;17.36;100.00
5138;BME280;53959;53.626;11.410;2023-07-24T01:16:14;99854.97;;;17.31;100.00
5138;BME280;53959;53.626;11.410;2023-07-24T01:18:43;99852.94;;;17.35;100.00
5138;BME280;53959;53.626;11.410;2023-07-24T01:21:10;99854.78;;;17.34;100.00
5138;BME280;53959;53.626;11.410;2023-07-24T01:23:55;99854.66;;;17.36;100.00
5138;BME280;53959;53.626;11.410;2023-07-24T01:26:23;99849.28;;;17.36;100.00
5138;BME280;53959;53.626;11.410;2023-07-24T01:28:50;99844.97;;;17.33;100.00
5138;BME280;53959;53.626;11.410;2023-07-24T01:31:15;99847.78;;;17.32;100.00
5138;BME280;53959;53.626;11.410;2023-07-24T01:33:43;99847.97;;;17.29;100.00
5138;BME280;53959;53.626;11.410;2023-07-24T01:36:08;99838.31;;;17.26;100.00
5138;BME280;53959;53.626;11.410;2023-07-24T01:38:35;99835.72;;;17.24;100.00
5138;BME280;53959;53.626;11.410;2023-07-24T01:41:00;99833.44;;;17.18;100.00
5138;BME280;53959;53.626;11.410;2023-07-24T01:43:27;99830.38;;;17.24;100.00
5138;BME280;53959;53.626;11.410;2023-07-24T01:45:53;99831.22;;;17.25;100.00
5138;BME280;53959;53.626;11.410;2023-07-24T01:48:19;99832.06;;;17.26;100.00
5138;BME280;53959;53.626;11.410;2023-07-24T01:50:44;99835.63;;;17.26;100.00
5138;BME280;53959;53.626;11.410;2023-07-24T01:53:10;99830.91;;;17.30;100.00
5138;BME280;53959;53.626;11.410;2023-07-24T01:55:35;99832.94;;;17.26;100.00
5138;BME280;53959;53.626;11.410;2023-07-24T01:58:00;99834.56;;;17.29;100.00
5138;BME280;53959;53.626;11.410;2023-07-24T02:00:26;99830.16;;;17.28;100.00
5138;BME280;53959;53.626;11.410;2023-07-24T02:02:57;99824.81;;;17.28;100.00
5138;BME280;53959;53.626;11.410;2023-07-24T02:05:23;99840.72;;;17.31;100.00
5138;BME280;53959;53.626;11.410;2023-07-24T02:07:48;99830.91;;;17.30;100.00
5138;BME280;53959;53.626;11.410;2023-07-24T02:10:13;99826.44;;;17.30;100.00
5138;BME280;53959;53.626;11.410;2023-07-24T02:12:39;99828.47;;;17.27;100.00
5138;BME280;53959;53.626;11.410;2023-07-24T02:15:05;99828.47;;;17.27;100.00
5138;BME280;53959;53.626;11.410;2023-07-24T02:17:31;99828.47;;;17.27;100.00
5138;BME280;53959;53.626;11.410;2023-07-24T02:19:56;99823.19;;;17.25;100.00
5138;BME280;53959;53.626;11.410;2023-07-24T02:22:22;99824.22;;;17.22;100.00
5138;BME280;53959;53.626;11.410;2023-07-24T02:24:47;99822.19;;;17.26;100.00
5138;BME280;53959;53.626;11.410;2023-07-24T02:27:13;99826.72;;;17.26;100.00
5138;BME280;53959;53.626;11.410;2023-07-24T02:29:41;99826.72;;;17.26;100.00
5138;BME280;53959;53.626;11.410;2023-07-24T02:32:07;99829.59;;;17.22;100.00
5138;BME280;53959;53.626;11.410;2023-07-24T02:34:32;99821.53;;;17.22;100.00
5138;BME280;53959;53.626;11.410;2023-07-24T02:36:57;99819.63;;;17.24;100.00
5138;BME280;53959;53.626;11.410;2023-07-24T02:39:23;99821.78;;;17.19;100.00
5138;BME280;53959;53.626;11.410;2023-07-24T02:41:48;99829.91;;;17.18;100.00
5138;BME280;53959;53.626;11.410;2023-07-24T02:44:14;99835.06;;;17.21;100.00
5138;BME280;53959;53.626;11.410;2023-07-24T02:46:39;99825.41;;;17.18;100.00
5138;BME280;53959;53.626;11.410;2023-07-24T02:49:05;99833.06;;;17.24;100.00
5138;BME280;53959;53.626;11.410;2023-07-24T02:51:31;99830.56;;;17.21;100.00
5138;BME280;53959;53.626;11.410;2023-07-24T02:53:57;99832.28;;;17.22;100.00
5138;BME280;53959;53.626;11.410;2023-07-24T02:56:22;99838.06;;;17.16;100.00
5138;BME280;53959;53.626;11.410;2023-07-24T02:58:48;99839.78;;;17.17;100.00
5138;BME280;53959;53.626;11.410;2023-07-24T03:01:14;99840.25;;;17.24;100.00
5138;BME280;53959;53.626;11.410;2023-07-24T03:03:40;99831.66;;;17.19;100.00
5138;BME280;53959;53.626;11.410;2023-07-24T03:06:06;99828.84;;;17.20;100.00
5138;BME280;53959;53.626;11.410;2023-07-24T03:08:31;99833.25;;;17.21;100.00
5138;BME280;53959;53.626;11.410;2023-07-24T03:10:57;99826.81;;;17.24;100.00
5138;BME280;53959;53.626;11.410;2023-07-24T03:13:23;99834.69;;;17.27;100.00
5138;BME280;53959;53.626;11.410;2023-07-24T03:15:56;99825.53;;;17.30;100.00
5138;BME280;53959;53.626;11.410;2023-07-24T03:18:22;99833.41;;;17.33;100.00
5138;BME280;53959;53.626;11.410;2023-07-24T03:20:49;99838.75;;;17.33;100.00
5138;BME280;53959;53.626;11.410;2023-07-24T03:23:15;99832.84;;;17.28;100.00
5138;BME280;53959;53.626;11.410;2023-07-24T03:25:40;99846.28;;;17.28;100.00
5138;BME280;53959;53.626;11.410;2023-07-24T03:28:06;99832.50;;;17.19;100.00
5138;BME280;53959;53.626;11.410;2023-07-24T03:30:31;99842.38;;;17.19;100.00
5138;BME280;53959;53.626;11.410;2023-07-24T03:32:57;99838.81;;;17.18;100.00
5138;BME280;53959;53.626;11.410;2023-07-24T03:35:23;99840.31;;;17.22;100.00
5138;BME280;53959;53.626;11.410;2023-07-24T03:37:49;99832.94;;;17.26;100.00
5138;BME280;53959;53.626;11.410;2023-07-24T03:40:14;99832.06;;;17.26;100.00
5138;BME280;53959;53.626;11.410;2023-07-24T03:42:40;99827.88;;;17.21;100.00
5138;BME280;53959;53.626;11.410;2023-07-24T03:45:07;99833.56;;;17.17;100.00
5138;BME280;53959;53.626;11.410;2023-07-24T03:47:32;99838.94;;;17.17;100.00
5138;BME280;53959;53.626;11.410;2023-07-24T03:49:57;99839.69;;;17.19;100.00
5138;BME280;53959;53.626;11.410;2023-07-24T03:52:23;99833.38;;;17.20;100.00
5138;BME280;53959;53.626;11.410;2023-07-24T03:54:48;99830.88;;;17.17;100.00
5138;BME280;53959;53.626;11.410;2023-07-24T03:57:13;99831.94;;;17.14;100.00
5138;BME280;53959;53.626;11.410;2023-07-24T03:59:39;99839.78;;;17.17;100.00
5138;BME280;53959;53.626;11.410;2023-07-24T04:02:04;99836.34;;;17.15;100.00
5138;BME280;53959;53.626;11.410;2023-07-24T04:04:30;99831.84;;;17.16;100.00
5138;BME280;53959;53.626;11.410;2023-07-24T04:06:56;99832.91;;;17.13;100.00
5138;BME280;53959;53.626;11.410;2023-07-24T04:09:21;99830.09;;;17.15;100.00
5138;BME280;53959;53.626;11.410;2023-07-24T04:11:46;99841.72;;;17.15;100.00
5138;BME280;53959;53.626;11.410;2023-07-24T04:14:12;99832.69;;;17.16;100.00
5138;BME280;53959;53.626;11.410;2023-07-24T04:16:37;99825.63;;;17.15;100.00
5138;BME280;53959;53.626;11.410;2023-07-24T04:19:03;99832.69;;;17.16;100.00
5138;BME280;53959;53.626;11.410;2023-07-24T04:21:29;99831.53;;;17.20;100.00
5138;BME280;53959;53.626;11.410;2023-07-24T04:23:54;99825.00;;;17.24;100.00
5138;BME280;53959;53.626;11.410;2023-07-24T04:26:19;99813.50;;;17.22;100.00
5138;BME280;53959;53.626;11.410;2023-07-24T04:28:45;99822.84;;;17.30;100.00
5138;BME280;53959;53.626;11.410;2023-07-24T04:31:10;99826.72;;;17.26;100.00
5138;BME280;53959;53.626;11.410;2023-07-24T04:33:35;99832.75;;;17.29;100.00
5138;BME280;53959;53.626;11.410;2023-07-24T04:36:01;99832.41;;;17.34;100.00
5138;BME280;53959;53.626;11.410;2023-07-24T04:38:26;99838.75;;;17.33;100.00
5138;BME280;53959;53.626;11.410;2023-07-24T04:40:51;99836.53;;;17.39;100.00
5138;BME280;53959;53.626;11.410;2023-07-24T04:43:17;99832.16;;;17.51;100.00
5138;BME280;53959;53.626;11.410;2023-07-24T04:45:42;99835.38;;;17.56;100.00
5138;BME280;53959;53.626;11.410;2023-07-24T04:48:08;99824.22;;;17.62;100.00
5138;BME280;53959;53.626;11.410;2023-07-24T04:50:33;99830.97;;;17.55;100.00
5138;BME280;53959;53.626;11.410;2023-07-24T04:52:58;99825.00;;;17.64;100.00
5138;BME280;53959;53.626;11.410;2023-07-24T04:55:24;99823.63;;;17.71;100.00
5138;BME280;53959;53.626;11.410;2023-07-24T04:57:49;99810.56;;;17.80;100.00
5138;BME280;53959;53.626;11.410;2023-07-24T05:00:15;99799.59;;;17.83;100.00
5138;BME280;53959;53.626;11.410;2023-07-24T05:02:40;99789.72;;;17.83;100.00
5138;BME280;53959;53.626;11.410;2023-07-24T05:05:06;99794.00;;;17.86;100.00
5138;BME280;53959;53.626;11.410;2023-07-24T05:07:31;99795.19;;;17.82;100.00
5138;BME280;53959;53.626;11.410;2023-07-24T05:09:57;99798.31;;;17.88;100.00
5138;BME280;53959;53.626;11.410;2023-07-24T05:12:22;99788.94;;;17.94;100.00
5138;BME280;53959;53.626;11.410;2023-07-24T05:14:48;99790.78;;;17.93;100.00
5138;BME280;53959;53.626;11.410;2023-07-24T05:17:13;99779.47;;;18.01;100.00
5138;BME280;53959;53.626;11.410;2023-07-24T05:19:38;99780.47;;;18.00;100.00
5138;BME280;53959;53.626;11.410;2023-07-24T05:22:04;99781.44;;;17.99;100.00
5138;BME280;53959;53.626;11.410;2023-07-24T05:24:29;99784.75;;;18.03;100.00
5138;BME280;53959;53.626;11.410;2023-07-24T05:26:54;99781.97;;;18.04;100.00
5138;BME280;53959;53.626;11.410;2023-07-24T05:29:20;99778.41;;;18.04;100.00
5138;BME280;53959;53.626;11.410;2023-07-24T05:31:45;99780.56;;;18.11;100.00
5138;BME280;53959;53.626;11.410;2023-07-24T05:34:11;99790.75;;;18.19;100.00
5138;BME280;53959;53.626;11.410;2023-07-24T05:36:36;99779.59;;;18.25;100.00
5138;BME280;53959;53.626;11.410;2023-07-24T05:39:01;99777.41;;;18.30;100.00
5138;BME280;53959;53.626;11.410;2023-07-24T05:41:27;99780.41;;;18.51;100.00
5138;BME280;53959;53.626;11.410;2023-07-24T05:43:52;99780.63;;;18.48;100.00
5138;BME280;53959;53.626;11.410;2023-07-24T05:46:17;99778.84;;;18.60;100.00
5138;BME280;53959;53.626;11.410;2023-07-24T05:48:43;99772.41;;;18.62;100.00
5138;BME280;53959;53.626;11.410;2023-07-24T05:51:08;99777.56;;;18.65;100.00
5138;BME280;53959;53.626;11.410;2023-07-24T05:53:33;99773.38;;;18.74;100.00
5138;BME280;53959;53.626;11.410;2023-07-24T05:55:59;99783.25;;;18.74;100.00
5138;BME280;53959;53.626;11.410;2023-07-24T05:58:26;99765.06;;;18.64;100.00
5138;BME280;53959;53.626;11.410;2023-07-24T06:00:51;99760.41;;;18.79;100.00
5138;BME280;53959;53.626;11.410;2023-07-24T06:03:17;99755.72;;;18.94;100.00
5138;BME280;53959;53.626;11.410;2023-07-24T06:05:42;99748.38;;;19.20;100.00
5138;BME280;53959;53.626;11.410;2023-07-24T06:08:07;99741.81;;;19.00;100.00
5138;BME280;53959;53.626;11.410;2023-07-24T06:10:36;99747.03;;;19.14;100.00
5138;BME280;53959;53.626;11.410;2023-07-24T06:13:01;99747.75;;;19.16;100.00
5138;BME280;53959;53.626;11.410;2023-07-24T06:15:26;99753.22;;;19.39;100.00
5138;BME280;53959;53.626;11.410;2023-07-24T06:17:52;99750.44;;;19.16;100.00
5138;BME280;53959;53.626;11.410;2023-07-24T06:20:17;99736.38;;;19.13;100.00
5138;BME280;53959;53.626;11.410;2023-07-24T06:22:42;99739.69;;;19.16;100.00
5138;BME280;53959;53.626;11.410;2023-07-24T06:25:08;99737.47;;;19.22;100.00
5138;BME280;53959;53.626;11.410;2023-07-24T06:27:33;99727.41;;;19.48;100.00
5138;BME280;53959;53.626;11.410;2023-07-24T06:29:58;99719.72;;;19.54;100.00
5138;BME280;53959;53.626;11.410;2023-07-24T06:32:24;99725.81;;;19.34;100.00
5138;BME280;53959;53.626;11.410;2023-07-24T06:34:49;99724.22;;;19.42;100.00
5138;BME280;53959;53.626;11.410;2023-07-24T06:37:14;99721.31;;;19.57;100.00
5138;BME280;53959;53.626;11.410;2023-07-24T06:39:40;99711.00;;;19.86;100.00
5138;BME280;53959;53.626;11.410;2023-07-24T06:42:05;99711.56;;;19.89;100.00
5138;BME280;53959;53.626;11.410;2023-07-24T06:44:30;99705.59;;;19.97;100.00
5138;BME280;53959;53.626;11.410;2023-07-24T06:46:56;99711.22;;;19.94;100.00
5138;BME280;53959;53.626;11.410;2023-07-24T06:49:21;99706.88;;;19.58;100.00
5138;BME280;53959;53.626;11.410;2023-07-24T06:51:46;99709.00;;;20.10;100.00
5138;BME280;53959;53.626;11.410;2023-07-24T06:54:12;99707.31;;;19.87;100.00
5138;BME280;53959;53.626;11.410;2023-07-24T06:56:37;99700.94;;;19.77;100.00
5138;BME280;53959;53.626;11.410;2023-07-24T06:59:02;99703.16;;;19.94;100.00
5138;BME280;53959;53.626;11.410;2023-07-24T07:01:28;99701.47;;;19.58;100.00
5138;BME280;53959;53.626;11.410;2023-07-24T07:03:53;99698.97;;;19.90;100.00
5138;BME280;53959;53.626;11.410;2023-07-24T07:06:18;99697.50;;;19.97;100.00
5138;BME280;53959;53.626;11.410;2023-07-24T07:08:44;99685.75;;;20.09;100.00
5138;BME280;53959;53.626;11.410;2023-07-24T07:11:09;99692.94;;;20.31;100.00
5138;BME280;53959;53.626;11.410;2023-07-24T07:13:34;99674.16;;;20.41;100.00
5138;BME280;53959;53.626;11.410;2023-07-24T07:16:00;99683.19;;;20.95;99.45
5138;BME280;53959;53.626;11.410;2023-07-24T07:18:25;99671.38;;;20.75;96.70
5138;BME280;53959;53.626;11.410;2023-07-24T07:20:52;99679.19;;;20.89;95.91
5138;BME280;53959;53.626;11.410;2023-07-24T07:23:18;99669.53;;;20.75;97.63
5138;BME280;53959;53.626;11.410;2023-07-24T07:25:44;99681.00;;;20.45;98.56
5138;BME280;53959;53.626;11.410;2023-07-24T07:28:13;99673.31;;;20.52;98.40
5138;BME280;53959;53.626;11.410;2023-07-24T07:30:39;99686.19;;;20.37;98.08
5138;BME280;53959;53.626;11.410;2023-07-24T07:33:04;99680.03;;;20.46;98.92
5138;BME280;53959;53.626;11.410;2023-07-24T07:35:32;99681.00;;;20.45;98.84
5138;BME280;53959;53.626;11.410;2023-07-24T07:37:57;99680.25;;;20.66;98.04
5138;BME280;53959;53.626;11.410;2023-07-24T07:40:23;99680.03;;;20.90;97.56
5138;BME280;53959;53.626;11.410;2023-07-24T07:42:48;99678.34;;;21.30;95.17
5138;BME280;53959;53.626;11.410;2023-07-24T07:45:14;99675.06;;;20.74;96.03
5138;BME280;53959;53.626;11.410;2023-07-24T07:47:39;99668.09;;;20.71;96.30
5138;BME280;53959;53.626;11.410;2023-07-24T07:50:05;99673.16;;;20.53;96.42
5138;BME280;53959;53.626;11.410;2023-07-24T07:52:30;99676.63;;;20.33;96.45
5138;BME280;53959;53.626;11.410;2023-07-24T07:54:55;99683.47;;;20.37;96.34
5138;BME280;53959;53.626;11.410;2023-07-24T07:57:21;99682.16;;;20.31;98.36
5138;BME280;53959;53.626;11.410;2023-07-24T07:59:46;99677.50;;;20.11;99.03
5138;BME280;53959;53.626;11.410;2023-07-24T08:02:11;99683.41;;;20.05;100.00
5138;BME280;53959;53.626;11.410;2023-07-24T08:04:37;99681.94;;;19.89;100.00
5138;BME280;53959;53.626;11.410;2023-07-24T08:07:02;99680.34;;;20.09;100.00
5138;BME280;53959;53.626;11.410;2023-07-24T08:09:28;99680.59;;;20.06;100.00
5138;BME280;53959;53.626;11.410;2023-07-24T08:11:53;99681.66;;;20.15;100.00
5138;BME280;53959;53.626;11.410;2023-07-24T08:14:19;99691.97;;;20.10;100.00
5138;BME280;53959;53.626;11.410;2023-07-24T08:16:44;99688.91;;;20.14;100.00
5138;BME280;53959;53.626;11.410;2023-07-24T08:19:10;99684.03;;;20.08;99.75
5138;BME280;53959;53.626;11.410;2023-07-24T08:21:35;99684.13;;;20.18;99.79
5138;BME280;53959;53.626;11.410;2023-07-24T08:24:01;99694.69;;;19.76;100.00
5138;BME280;53959;53.626;11.410;2023-07-24T08:26:27;99700.47;;;19.48;100.00
5138;BME280;53959;53.626;11.410;2023-07-24T08:28:52;99707.88;;;19.22;100.00
5138;BME280;53959;53.626;11.410;2023-07-24T08:31:18;99712.22;;;18.76;100.00
5138;BME280;53959;53.626;11.410;2023-07-24T08:33:43;99722.25;;;18.61;100.00
5138;BME280;53959;53.626;11.410;2023-07-24T08:36:08;99725.88;;;18.49;100.00
5138;BME280;53959;53.626;11.410;2023-07-24T08:38:34;99731.38;;;18.35;100.00
5138;BME280;53959;53.626;11.410;2023-07-24T08:41:01;99738.06;;;18.29;100.00
5138;BME280;53959;53.626;11.410;2023-07-24T08:43:28;99734.16;;;18.09;100.00
5138;BME280;53959;53.626;11.410;2023-07-24T08:45:55;99740.03;;;18.14;100.00
5138;BME280;53959;53.626;11.410;2023-07-24T08:48:21;99744.25;;;17.93;100.00
5138;BME280;53959;53.626;11.410;2023-07-24T08:50:49;99744.47;;;17.64;100.00
5138;BME280;53959;53.626;11.410;2023-07-24T08:53:15;99752.28;;;17.67;100.00
5138;BME280;53959;53.626;11.410;2023-07-24T08:55:41;99767.28;;;17.44;100.00
5138;BME280;53959;53.626;11.410;2023-07-24T08:58:07;99750.84;;;17.36;100.00
5138;BME280;53959;53.626;11.410;2023-07-24T09:00:34;99761.25;;;17.41;100.00
5138;BME280;53959;53.626;11.410;2023-07-24T09:02:59;99765.03;;;17.38;100.00
5138;BME280;53959;53.626;11.410;2023-07-24T09:05:26;99761.06;;;17.44;100.00
5138;BME280;53959;53.626;11.410;2023-07-24T09:07:52;99760.22;;;17.56;100.00
5138;BME280;53959;53.626;11.410;2023-07-24T09:10:24;99758.41;;;17.57;100.00
5138;BME280;53959;53.626;11.410;2023-07-24T09:12:50;99765.69;;;17.67;100.00
5138;BME280;53959;53.626;11.410;2023-07-24T09:15:15;99759.25;;;17.70;100.00
5138;BME280;53959;53.626;11.410;2023-07-24T09:17:51;99752.53;;;17.77;100.00
5138;BME280;53959;53.626;11.410;2023-07-24T09:20:18;99759.53;;;17.80;100.00
5138;BME280;53959;53.626;11.410;2023-07-24T09:22:53;99757.44;;;17.70;100.00
5138;BME280;53959;53.626;11.410;2023-07-24T09:25:32;99760.56;;;17.90;100.00
5138;BME280;53959;53.626;11.410;2023-07-24T09:27:58;99764.25;;;17.89;100.00
5138;BME280;53959;53.626;11.410;2023-07-24T09:30:24;99765.31;;;17.99;100.00
5138;BME280;53959;53.626;11.410;2023-07-24T09:32:53;99764.56;;;17.97;100.00
5138;BME280;53959;53.626;11.410;2023-07-24T09:35:19;99766.81;;;18.03;100.00
5138;BME280;53959;53.626;11.410;2023-07-24T09:37:45;99759.59;;;18.16;100.00
5138;BME280;53959;53.626;11.410;2023-07-24T09:40:11;99754.88;;;18.07;100.00
5138;BME280;53959;53.626;11.410;2023-07-24T09:42:38;99758.34;;;18.09;100.00
5138;BME280;53959;53.626;11.410;2023-07-24T09:45:05;99749.28;;;18.10;100.00
5138;BME280;53959;53.626;11.410;2023-07-24T09:47:31;99763.25;;;18.15;100.00
5138;BME280;53959;53.626;11.410;2023-07-24T09:49:56;99750.09;;;18.36;100.00
5138;BME280;53959;53.626;11.410;2023-07-24T09:52:24;99734.63;;;18.40;100.00
5138;BME280;53959;53.626;11.410;2023-07-24T09:55:12;99739.31;;;18.49;100.00
5138;BME280;53959;53.626;11.410;2023-07-24T09:57:41;99730.31;;;18.37;100.00
5138;BME280;53959;53.626;11.410;2023-07-24T10:00:07;99723.38;;;18.46;100.00
5138;BME280;53959;53.626;11.410;2023-07-24T10:02:33;99708.13;;;18.47;100.00
5138;BME280;53959;53.626;11.410;2023-07-24T10:04:58;99711.91;;;18.68;100.00
5138;BME280;53959;53.626;11.410;2023-07-24T10:07:24;99723.34;;;18.72;100.00
5138;BME280;53959;53.626;11.410;2023-07-24T10:09:50;99713.53;;;19.19;100.00
5138;BME280;53959;53.626;11.410;2023-07-24T10:12:19;99723.50;;;20.75;100.00
5138;BME280;53959;53.626;11.410;2023-07-24T10:14:46;99711.19;;;20.50;100.00
5138;BME280;53959;53.626;11.410;2023-07-24T10:17:12;99696.28;;;20.01;100.00
5138;BME280;53959;53.626;11.410;2023-07-24T10:19:43;99704.03;;;19.59;100.00
5138;BME280;53959;53.626;11.410;2023-07-24T10:22:16;99708.69;;;19.46;100.00
5138;BME280;53959;53.626;11.410;2023-07-24T10:24:43;99718.91;;;19.19;100.00
5138;BME280;53959;53.626;11.410;2023-07-24T10:27:08;99718.59;;;19.10;100.00
5138;BME280;53959;53.626;11.410;2023-07-24T10:29:35;99711.13;;;19.03;100.00
5138;BME280;53959;53.626;11.410;2023-07-24T10:32:01;99708.69;;;19.00;100.00
5138;BME280;53959;53.626;11.410;2023-07-24T10:34:36;99714.47;;;19.17;100.00
5138;BME280;53959;53.626;11.410;2023-07-24T10:37:02;99710.88;;;19.30;100.00
5138;BME280;53959;53.626;11.410;2023-07-24T10:39:40;99714.63;;;19.85;100.00
5138;BME280;53959;53.626;11.410;2023-07-24T10:42:10;99712.13;;;19.59;100.00
5138;BME280;53959;53.626;11.410;2023-07-24T10:44:36;99716.00;;;19.44;100.00
5138;BME280;53959;53.626;11.410;2023-07-24T10:47:02;99708.56;;;19.48;100.00
5138;BME280;53959;53.626;11.410;2023-07-24T10:49:28;99704.50;;;19.31;100.00
5138;BME280;53959;53.626;11.410;2023-07-24T10:51:57;99712.81;;;19.28;100.00
5138;BME280;53959;53.626;11.410;2023-07-24T10:54:22;99705.97;;;19.35;100.00
5138;BME280;53959;53.626;11.410;2023-07-24T10:56:48;99704.25;;;19.34;100.00
5138;BME280;53959;53.626;11.410;2023-07-24T10:59:13;99703.00;;;19.15;100.00
5138;BME280;53959;53.626;11.410;2023-07-24T11:01:40;99687.72;;;19.27;100.00
5138;BME280;53959;53.626;11.410;2023-07-24T11:04:06;99678.84;;;19.60;100.00
5138;BME280;53959;53.626;11.410;2023-07-24T11:06:32;99671.03;;;19.69;100.00
5138;BME280;53959;53.626;11.410;2023-07-24T11:08:59;99667.13;;;19.95;100.00
5138;BME280;53959;53.626;11.410;2023-07-24T11:11:33;99662.28;;;20.32;100.00
5138;BME280;53959;53.626;11.410;2023-07-24T11:14:01;99657.34;;;20.92;100.00
5138;BME280;53959;53.626;11.410;2023-07-24T11:16:27;99642.13;;;21.54;100.00
5138;BME280;53959;53.626;11.410;2023-07-24T11:18:52;99630.78;;;23.18;100.00
5138;BME280;53959;53.626;11.410;2023-07-24T11:21:18;99615.09;;;22.25;100.00
5138;BME280;53959;53.626;11.410;2023-07-24T11:23:48;99606.59;;;22.59;100.00
5138;BME280;53959;53.626;11.410;2023-07-24T11:26:14;99603.16;;;22.47;100.00
5138;BME280;53959;53.626;11.410;2023-07-24T11:28:39;99608.69;;;22.16;100.00
5138;BME280;53959;53.626;11.410;2023-07-24T11:31:05;99607.13;;;21.83;100.00
5138;BME280;53959;53.626;11.410;2023-07-24T11:33:31;99603.81;;;21.39;100.00
5138;BME280;53959;53.626;11.410;2023-07-24T11:35:57;99602.09;;;20.96;100.00
5138;BME280;53959;53.626;11.410;2023-07-24T11:38:22;99606.09;;;20.60;100.00
5138;BME280;53959;53.626;11.410;2023-07-24T11:40:49;99604.22;;;20.93;100.00
5138;BME280;53959;53.626;11.410;2023-07-24T11:43:19;99599.94;;;20.69;100.00
5138;BME280;53959;53.626;11.410;2023-07-24T11:45:45;99597.81;;;20.73;100.00
5138;BME280;53959;53.626;11.410;2023-07-24T11:48:13;99604.03;;;20.52;100.00
5138;BME280;53959;53.626;11.410;2023-07-24T11:50:48;99596.69;;;20.54;100.00
5138;BME280;53959;53.626;11.410;2023-07-24T11:55:49;99598.84;;;20.60;100.00
5138;BME280;53959;53.626;11.410;2023-07-24T11:58:15;99602.69;;;20.47;100.00
5138;BME280;53959;53.626;11.410;2023-07-24T12:00:41;99602.03;;;20.66;100.00
5138;BME280;53959;53.626;11.410;2023-07-24T12:03:07;99594.28;;;20.93;100.00
5138;BME280;53959;53.626;11.410;2023-07-24T12:05:43;99587.69;;;20.86;100.00
5138;BME280;53959;53.626;11.410;2023-07-24T12:08:12;99589.97;;;20.91;100.00
5138;BME280;53959;53.626;11.410;2023-07-24T12:10:40;99581.44;;;21.06;100.00
5138;BME280;53959;53.626;11.410;2023-07-24T12:13:06;99577.25;;;20.60;100.00
5138;BME280;53959;53.626;11.410;2023-07-24T12:15:32;99577.75;;;21.07;100.00
5138;BME280;53959;53.626;11.410;2023-07-24T12:17:59;99581.78;;;20.92;100.00
5138;BME280;53959;53.626;11.410;2023-07-24T12:20:25;99575.53;;;21.43;100.00
5138;BME280;53959;53.626;11.410;2023-07-24T12:22:50;99580.41;;;21.49;100.00
5138;BME280;53959;53.626;11.410;2023-07-24T12:25:15;99567.06;;;21.98;100.00
5138;BME280;53959;53.626;11.410;2023-07-24T12:27:41;99573.91;;;22.12;100.00
5138;BME280;53959;53.626;11.410;2023-07-24T12:30:07;99586.81;;;21.48;100.00
5138;BME280;53959;53.626;11.410;2023-07-24T12:32:34;99575.69;;;21.82;100.00
5138;BME280;53959;53.626;11.410;2023-07-24T12:34:59;99557.75;;;21.71;100.00
5138;BME280;53959;53.626;11.410;2023-07-24T12:37:25;99572.34;;;21.59;100.00
5138;BME280;53959;53.626;11.410;2023-07-24T12:39:50;99558.06;;;21.78;100.00
5138;BME280;53959;53.626;11.410;2023-07-24T12:42:16;99561.06;;;21.94;100.00
5138;BME280;53959;53.626;11.410;2023-07-24T12:44:42;99564.47;;;21.96;100.00
5138;BME280;53959;53.626;11.410;2023-07-24T12:47:08;99544.44;;;21.58;100.00